createdAt,value
2023-02-06T00:00:47.645Z,-1.23
2023-02-06T00:06:00.772Z,-1.38
2023-02-06T00:11:07.553Z,-1.49
2023-02-06T00:16:16.497Z,-1.64
2023-02-06T00:21:21.742Z,-1.68
2023-02-06T00:26:24.768Z,-1.71
2023-02-06T00:31:27.060Z,-1.72
2023-02-06T00:36:28.966Z,-1.72
2023-02-06T00:41:30.799Z,-1.69
2023-02-06T00:46:32.876Z,-1.67
2023-02-06T00:51:38.869Z,-1.69
2023-02-06T00:56:40.781Z,-1.74
2023-02-06T01:01:42.708Z,-1.69
2023-02-06T01:06:44.541Z,-1.61
2023-02-06T01:11:46.428Z,-1.45
2023-02-06T01:16:48.285Z,-1.33
2023-02-06T01:21:50.127Z,-1.20
2023-02-06T01:26:51.959Z,-1.05
2023-02-06T01:31:53.789Z,-0.97
2023-02-06T01:36:55.610Z,-0.95
2023-02-06T01:41:57.439Z,-1.02
2023-02-06T01:46:59.767Z,-1.12
2023-02-06T01:52:19.941Z,-1.21
2023-02-06T01:57:25.562Z,-1.19
2023-02-06T02:02:29.416Z,-1.19
2023-02-06T02:07:35.606Z,-1.30
2023-02-06T02:12:37.486Z,-1.27
2023-02-06T02:18:11.296Z,-1.20
2023-02-06T02:23:45.673Z,-1.30
2023-02-06T02:29:01.474Z,-1.38
2023-02-06T02:34:21.742Z,-1.43
2023-02-06T02:39:36.083Z,-1.42
2023-02-06T02:44:47.555Z,-1.35
2023-02-06T02:49:50.247Z,-1.36
2023-02-06T02:54:52.128Z,-1.33
2023-02-06T02:59:58.224Z,-1.27
2023-02-06T03:05:12.866Z,-1.24
2023-02-06T03:10:30.384Z,-1.21
2023-02-06T03:15:47.067Z,-1.21
2023-02-06T03:20:51.290Z,-1.12
2023-02-06T03:25:58.994Z,-0.99
2023-02-06T03:31:03.957Z,-0.89
2023-02-06T03:36:06.757Z,-0.82
2023-02-06T03:41:08.915Z,-0.76
2023-02-06T03:46:13.182Z,-0.72
2023-02-06T03:51:19.422Z,-0.69
2023-02-06T03:56:37.346Z,-0.68
2023-02-06T04:01:51.323Z,-0.74
2023-02-06T04:06:53.165Z,-0.76
2023-02-06T04:11:55.066Z,-0.78
2023-02-06T04:16:56.919Z,-0.79
2023-02-06T04:21:58.908Z,-0.77
2023-02-06T04:27:00.909Z,-0.71
2023-02-06T04:32:03.365Z,-0.69
2023-02-06T04:37:06.263Z,-0.69
2023-02-06T04:42:08.259Z,-0.71
2023-02-06T04:47:10.066Z,-0.75
2023-02-06T04:52:12.016Z,-0.74
2023-02-06T04:57:13.846Z,-0.68
2023-02-06T05:02:15.783Z,-0.62
2023-02-06T05:07:17.636Z,-0.56
2023-02-06T05:12:19.448Z,-0.54
2023-02-06T05:17:21.680Z,-0.50
2023-02-06T05:22:23.497Z,-0.43
2023-02-06T05:27:25.779Z,-0.40
2023-02-06T05:32:27.613Z,-0.33
2023-02-06T05:37:29.424Z,-0.38
2023-02-06T05:42:31.384Z,-0.38
2023-02-06T05:47:34.708Z,-0.37
2023-02-06T05:52:36.548Z,-0.34
2023-02-06T05:57:38.716Z,-0.18
2023-02-06T06:02:40.569Z,-0.01
2023-02-06T06:07:42.421Z,0.00
2023-02-06T06:12:44.249Z,0.12
2023-02-06T06:17:46.099Z,0.15
2023-02-06T06:22:47.977Z,0.05
2023-02-06T06:27:49.935Z,0.16
2023-02-06T06:32:51.947Z,0.28
2023-02-06T06:37:53.820Z,0.34
2023-02-06T06:42:55.674Z,0.32
2023-02-06T06:47:57.510Z,0.31
2023-02-06T06:52:59.380Z,0.36
2023-02-06T06:58:01.236Z,0.43
2023-02-06T07:03:03.148Z,0.48
2023-02-06T07:08:05.547Z,0.39
2023-02-06T07:13:07.390Z,0.44
2023-02-06T07:18:11.564Z,0.47
2023-02-06T07:23:13.550Z,0.56
2023-02-06T07:28:15.696Z,0.71
2023-02-06T07:33:17.579Z,0.87
2023-02-06T07:38:19.439Z,0.90
2023-02-06T07:43:21.294Z,0.95
2023-02-06T07:48:23.127Z,1.00
2023-02-06T07:53:24.939Z,1.06
2023-02-06T07:58:26.859Z,1.11
2023-02-06T08:03:28.811Z,1.23
2023-02-06T08:08:30.692Z,1.28
2023-02-06T08:13:32.547Z,1.35
2023-02-06T08:18:34.483Z,1.44
2023-02-06T08:23:36.896Z,1.40
2023-02-06T08:28:41.891Z,1.44
2023-02-06T08:33:44.786Z,1.44
2023-02-06T08:38:47.839Z,1.46
2023-02-06T08:43:51.064Z,1.53
2023-02-06T08:49:04.979Z,1.65
2023-02-06T08:54:11.087Z,1.73
2023-02-06T08:59:14.792Z,1.79
2023-02-06T09:04:16.906Z,1.84
2023-02-06T09:09:19.120Z,1.85
2023-02-06T09:14:20.963Z,1.88
2023-02-06T09:19:23.085Z,1.79
2023-02-06T09:24:25.448Z,1.89
2023-02-06T09:29:32.061Z,1.99
2023-02-06T09:34:34.247Z,2.07
2023-02-06T09:39:36.255Z,2.14
2023-02-06T09:44:44.542Z,2.13
2023-02-06T09:49:49.266Z,2.13
2023-02-06T09:55:19.492Z,2.17
2023-02-06T10:00:24.563Z,2.25
2023-02-06T10:06:05.783Z,2.37
2023-02-06T10:11:45.141Z,2.42
2023-02-06T10:17:01.163Z,2.46
2023-02-06T10:22:10.117Z,2.53
2023-02-06T10:27:14.118Z,2.49
2023-02-06T10:32:30.824Z,2.42
2023-02-06T10:37:50.969Z,2.43
2023-02-06T10:43:15.975Z,2.60
2023-02-06T10:48:37.288Z,2.76
2023-02-06T10:53:48.966Z,2.82
2023-02-06T10:59:01.273Z,2.86
2023-02-06T11:04:27.825Z,2.81
2023-02-06T11:09:30.302Z,2.70
2023-02-06T11:14:38.125Z,2.69
2023-02-06T11:19:42.935Z,2.68
2023-02-06T11:25:07.932Z,2.61
2023-02-06T11:30:35.379Z,2.64
2023-02-06T11:35:49.612Z,2.68
2023-02-06T11:41:01.578Z,2.76
2023-02-06T11:46:15.192Z,2.76
2023-02-06T11:51:17.297Z,2.72
2023-02-06T11:56:21.052Z,2.74
2023-02-06T12:01:22.927Z,2.76
2023-02-06T12:06:32.044Z,2.74
2023-02-06T12:12:12.887Z,2.81
2023-02-06T12:17:27.193Z,2.92
2023-02-06T12:22:36.372Z,3.02
2023-02-06T12:27:40.706Z,3.15
2023-02-06T12:32:46.949Z,3.27
2023-02-06T12:37:55.568Z,3.33
2023-02-06T12:43:13.056Z,3.33
2023-02-06T12:48:17.527Z,3.35
2023-02-06T12:53:28.297Z,3.38
2023-02-06T12:58:51.655Z,3.30
2023-02-06T13:03:57.153Z,3.34
2023-02-06T13:09:03.655Z,3.35
2023-02-06T13:14:27.554Z,3.41
2023-02-06T13:19:51.310Z,3.49
2023-02-06T13:24:53.226Z,3.63
2023-02-06T13:29:55.088Z,3.79
2023-02-06T13:35:13.199Z,3.92
2023-02-06T13:40:23.845Z,3.96
2023-02-06T13:45:42.074Z,3.94
2023-02-06T13:51:07.366Z,3.96
2023-02-06T13:56:46.858Z,3.91
2023-02-06T14:01:49.079Z,4.00
2023-02-06T14:07:06.108Z,4.12
2023-02-06T14:12:38.996Z,4.07
2023-02-06T14:18:30.646Z,4.03
2023-02-06T14:23:51.172Z,3.99
2023-02-06T14:29:33.831Z,3.96
2023-02-06T14:34:45.874Z,3.93
2023-02-06T14:39:50.123Z,3.87
2023-02-06T14:45:15.198Z,3.86
2023-02-06T14:50:29.621Z,3.90
2023-02-06T14:55:36.104Z,3.89
2023-02-06T15:00:38.220Z,3.84
2023-02-06T15:05:40.337Z,3.79
2023-02-06T15:10:42.177Z,3.78
2023-02-06T15:15:56.920Z,3.70
2023-02-06T15:21:04.064Z,3.59
2023-02-06T15:26:24.611Z,3.55
2023-02-06T15:31:28.250Z,3.54
2023-02-06T15:36:38.660Z,3.50
2023-02-06T15:41:47.332Z,3.48
2023-02-06T15:46:54.072Z,3.47
2023-02-06T15:51:56.038Z,3.40
2023-02-06T15:57:05.775Z,3.33
2023-02-06T16:02:08.080Z,3.14
2023-02-06T16:07:22.775Z,3.07
2023-02-06T16:12:25.177Z,2.98
2023-02-06T16:17:41.290Z,2.83
2023-02-06T16:22:43.132Z,2.69
2023-02-06T16:27:46.326Z,2.61
2023-02-06T16:32:48.550Z,2.45
2023-02-06T16:37:52.931Z,2.32
2023-02-06T16:42:54.875Z,2.29
2023-02-06T16:47:56.836Z,2.31
2023-02-06T16:53:00.755Z,2.28
2023-02-06T16:58:02.735Z,2.28
2023-02-06T17:03:04.622Z,2.21
2023-02-06T17:08:24.735Z,2.05
2023-02-06T17:13:26.689Z,1.92
2023-02-06T17:18:28.564Z,1.96
2023-02-06T17:23:30.449Z,1.96
2023-02-06T17:28:32.340Z,1.89
2023-02-06T17:33:34.939Z,1.86
2023-02-06T17:38:36.756Z,1.89
2023-02-06T17:43:38.711Z,1.79
2023-02-06T17:48:42.791Z,1.50
2023-02-06T17:53:44.897Z,1.30
2023-02-06T17:58:47.230Z,1.15
2023-02-06T18:03:50.489Z,1.07
2023-02-06T18:08:52.480Z,0.87
2023-02-06T18:13:54.500Z,0.66
2023-02-06T18:18:56.979Z,0.63
2023-02-06T18:23:59.086Z,0.66
2023-02-06T18:29:05.003Z,0.65
2023-02-06T18:34:08.459Z,0.44
2023-02-06T18:39:10.516Z,0.33
2023-02-06T18:44:13.813Z,0.19
2023-02-06T18:49:16.001Z,0.08
2023-02-06T18:54:18.174Z,-0.02
2023-02-06T18:59:20.795Z,-0.10
2023-02-06T19:04:23.031Z,-0.22
2023-02-06T19:09:25.580Z,-0.24
2023-02-06T19:14:28.574Z,-0.34
2023-02-06T19:19:30.392Z,-0.46
2023-02-06T19:24:32.398Z,-0.55
2023-02-06T19:29:36.532Z,-0.65
2023-02-06T19:34:40.411Z,-0.67
2023-02-06T19:39:43.442Z,-0.76
2023-02-06T19:44:45.843Z,-0.81
2023-02-06T19:49:51.491Z,-0.87
2023-02-06T19:54:53.899Z,-0.91
2023-02-06T19:59:55.744Z,-0.98
2023-02-06T20:04:57.634Z,-0.97
2023-02-06T20:09:59.608Z,-0.82
2023-02-06T20:15:02.569Z,-0.72
2023-02-06T20:20:06.627Z,-0.66
2023-02-06T20:25:09.116Z,-0.70
2023-02-06T20:30:12.173Z,-0.77
2023-02-06T20:35:14.229Z,-0.80
2023-02-06T20:40:16.615Z,-0.83
2023-02-06T20:45:18.620Z,-1.21
2023-02-06T20:50:20.455Z,-1.39
2023-02-06T20:55:22.311Z,-1.39
2023-02-06T21:00:24.173Z,-1.49
2023-02-06T21:05:32.442Z,-1.35
2023-02-06T21:10:34.338Z,-1.20
2023-02-06T21:15:36.248Z,-1.01
2023-02-06T21:20:38.275Z,-0.87
2023-02-06T21:25:40.852Z,-0.78
2023-02-06T21:30:42.761Z,-0.79
2023-02-06T21:35:51.493Z,-0.84
2023-02-06T21:40:53.328Z,-0.94
2023-02-06T21:45:57.799Z,-1.04
2023-02-06T21:51:06.473Z,-1.20
2023-02-06T21:56:14.415Z,-1.39
2023-02-06T22:01:18.664Z,-1.58
2023-02-06T22:06:21.023Z,-1.55
2023-02-06T22:11:30.492Z,-1.52
2023-02-06T22:16:33.481Z,-1.61
2023-02-06T22:21:35.611Z,-1.58
2023-02-06T22:26:38.928Z,-1.54
2023-02-06T22:31:43.268Z,-1.51
2023-02-06T22:36:45.706Z,-1.55
2023-02-06T22:41:48.002Z,-1.70
2023-02-06T22:46:52.357Z,-1.86
2023-02-06T22:51:54.356Z,-2.04
2023-02-06T22:56:56.260Z,-2.26
2023-02-06T23:01:59.228Z,-2.50
2023-02-06T23:07:01.840Z,-2.64
2023-02-06T23:12:04.366Z,-2.60
2023-02-06T23:17:06.211Z,-2.72
2023-02-06T23:22:10.638Z,-2.86
2023-02-06T23:27:12.547Z,-3.00
2023-02-06T23:32:14.413Z,-3.21
2023-02-06T23:37:16.199Z,-3.38
2023-02-06T23:42:18.025Z,-3.35
2023-02-06T23:47:19.834Z,-3.35
2023-02-06T23:52:21.690Z,-3.47
2023-02-06T23:57:23.563Z,-3.34
